Time;durP1;ratioP1;P1;durP2;ratioP2;P2;SDS_P1;SDS_P2;PMS_P1;PMS_P2;Temp;Humidity;BMP_temperature;BMP_pressure;BME280_temperature;BME280_humidity;BME280_pressure;Samples;Min_cycle;Max_cycle;Signal;HPM_P1;HPM_P2
2022/07/25 00:01:57;;;;;;;;;;;24.90;67.60;;;;;;5073129;28;19909;-54
2022/07/25 00:04:23;;;;;;;;;;;24.90;67.60;;;;;;5037714;28;20357;-53
2022/07/25 00:06:48;;;;;;;;;;;24.90;68.40;;;;;;5070061;28;19912;-52
2022/07/25 00:09:14;;;;;;;;;;;24.90;68.80;;;;;;5072911;28;19919;-56
2022/07/25 00:11:39;;;;;;;;;;;24.80;68.20;;;;;;5072837;28;19934;-55
2022/07/25 00:14:05;;;;;;;;;;;24.80;67.70;;;;;;5073236;28;19965;-56
2022/07/25 00:16:30;;;;;;;;;;;24.80;69.20;;;;;;5072550;28;19912;-53
2022/07/25 00:18:56;;;;;;;;;;;24.70;68.80;;;;;;5073006;28;19928;-56
2022/07/25 00:21:21;;;;;;;;;;;24.70;68.30;;;;;;5072446;28;20285;-55
2022/07/25 00:23:47;;;;;;;;;;;24.70;68.10;;;;;;5065368;28;19955;-57
2022/07/25 00:26:13;;;;;;;;;;;24.70;68.40;;;;;;5072615;28;19912;-55
2022/07/25 00:28:38;;;;;;;;;;;24.70;68.90;;;;;;5072216;28;20008;-54
2022/07/25 00:31:04;;;;;;;;;;;24.60;68.80;;;;;;5073274;28;19908;-48
2022/07/25 00:33:30;;;;;;;;;;;24.60;70.00;;;;;;5072227;28;20121;-55
2022/07/25 00:35:55;;;;;;;;;;;24.60;70.10;;;;;;5072582;28;20341;-52
2022/07/25 00:38:21;;;;;;;;;;;24.60;70.60;;;;;;5072000;28;19916;-56
2022/07/25 00:40:47;;;;;;;;;;;24.60;70.00;;;;;;5071846;28;19916;-55
2022/07/25 00:43:12;;;;;;;;;;;24.60;67.40;;;;;;5054526;28;19915;-55
2022/07/25 00:45:38;;;;;;;;;;;24.60;68.30;;;;;;5072321;28;19916;-54
2022/07/25 00:48:03;;;;;;;;;;;24.50;69.60;;;;;;5072000;28;19919;-57
2022/07/25 00:50:29;;;;;;;;;;;24.50;68.20;;;;;;5068283;28;19944;-57
2022/07/25 00:52:55;;;;;;;;;;;24.60;70.30;;;;;;5071615;28;19908;-52
2022/07/25 00:55:21;;;;;;;;;;;24.60;70.30;;;;;;5072164;28;19908;-54
2022/07/25 00:57:47;;;;;;;;;;;24.50;70.30;;;;;;5071636;28;20000;-56
2022/07/25 01:00:14;;;;;;;;;;;24.50;70.30;;;;;;5071558;28;20319;-56
2022/07/25 01:02:39;;;;;;;;;;;24.50;71.30;;;;;;5071498;28;20399;-52
2022/07/25 01:05:05;;;;;;;;;;;24.50;69.00;;;;;;5068779;28;19909;-54
2022/07/25 01:07:31;;;;;;;;;;;24.50;69.70;;;;;;5071667;28;19916;-57
2022/07/25 01:09:57;;;;;;;;;;;24.50;69.50;;;;;;5071422;28;19912;-54
2022/07/25 01:12:22;;;;;;;;;;;24.40;70.60;;;;;;5071294;28;19978;-56
2022/07/25 01:14:48;;;;;;;;;;;24.40;69.50;;;;;;5072159;28;19958;-55
2022/07/25 01:17:13;;;;;;;;;;;24.40;70.80;;;;;;5071475;28;20330;-57
2022/07/25 01:19:39;;;;;;;;;;;24.30;69.60;;;;;;5053410;28;19916;-56
2022/07/25 01:22:05;;;;;;;;;;;24.40;71.60;;;;;;5053142;28;20021;-57
2022/07/25 01:24:32;;;;;;;;;;;24.40;69.70;;;;;;5071747;28;19943;-56
2022/07/25 01:26:57;;;;;;;;;;;24.40;69.60;;;;;;5071415;28;19916;-53
2022/07/25 01:29:23;;;;;;;;;;;24.50;69.80;;;;;;5071071;28;19912;-54
2022/07/25 01:31:48;;;;;;;;;;;24.50;69.60;;;;;;5071769;28;19909;-54
2022/07/25 01:34:14;;;;;;;;;;;24.60;70.20;;;;;;5071176;28;20311;-56
2022/07/25 01:36:39;;;;;;;;;;;24.60;69.80;;;;;;5070831;28;19968;-56
2022/07/25 01:39:05;;;;;;;;;;;24.60;69.70;;;;;;5047249;28;20011;-56
2022/07/25 01:41:30;;;;;;;;;;;24.60;69.60;;;;;;5069924;28;19954;-55
2022/07/25 01:43:56;;;;;;;;;;;24.60;69.20;;;;;;5071176;28;20031;-53
2022/07/25 01:46:21;;;;;;;;;;;24.60;69.10;;;;;;5067950;28;19908;-54
2022/07/25 01:48:47;;;;;;;;;;;24.60;69.40;;;;;;5070984;28;19908;-56
2022/07/25 01:51:12;;;;;;;;;;;24.60;69.20;;;;;;5070244;28;20023;-51
2022/07/25 01:53:38;;;;;;;;;;;24.60;69.10;;;;;;5070800;28;19954;-56
2022/07/25 01:56:04;;;;;;;;;;;24.60;69.60;;;;;;5071179;28;19919;-50
2022/07/25 01:58:30;;;;;;;;;;;24.60;69.40;;;;;;5070925;28;19970;-54
2022/07/25 02:00:55;;;;;;;;;;;24.70;69.50;;;;;;5071036;28;20616;-51
2022/07/25 02:03:30;;;;;;;;;;;24.60;70.10;;;;;;5070873;28;20431;-56
2022/07/25 02:05:59;;;;;;;;;;;24.60;69.70;;;;;;5070448;28;19995;-55
2022/07/25 02:08:25;;;;;;;;;;;24.60;70.30;;;;;;5071421;28;19908;-55
2022/07/25 02:10:50;;;;;;;;;;;24.60;70.10;;;;;;5070555;28;20305;-56
2022/07/25 02:13:16;;;;;;;;;;;24.60;69.70;;;;;;5036384;28;20596;-56
2022/07/25 02:15:41;;;;;;;;;;;24.60;70.30;;;;;;5071112;28;19916;-54
2022/07/25 02:18:07;;;;;;;;;;;24.60;70.20;;;;;;5052664;28;20265;-53
2022/07/25 02:20:32;;;;;;;;;;;24.50;71.30;;;;;;5070297;28;20281;-51
2022/07/25 02:22:58;;;;;;;;;;;24.40;70.60;;;;;;5071439;28;19912;-55
2022/07/25 02:25:24;;;;;;;;;;;24.40;70.60;;;;;;5075246;28;19914;-53
2022/07/25 02:27:49;;;;;;;;;;;24.40;71.00;;;;;;5074814;28;19913;-53
2022/07/25 02:30:15;;;;;;;;;;;24.30;71.20;;;;;;5074023;28;19912;-51
2022/07/25 02:32:40;;;;;;;;;;;24.30;72.00;;;;;;5049414;28;19913;-56
2022/07/25 02:35:06;;;;;;;;;;;24.20;71.20;;;;;;5074488;28;19909;-54
2022/07/25 02:37:32;;;;;;;;;;;24.20;72.10;;;;;;5074287;28;19909;-53
2022/07/25 02:39:57;;;;;;;;;;;24.20;71.50;;;;;;5074541;28;20308;-56
2022/07/25 02:42:23;;;;;;;;;;;24.10;71.80;;;;;;5074712;28;19916;-54
2022/07/25 02:44:48;;;;;;;;;;;24.10;72.40;;;;;;5074441;28;19908;-54
2022/07/25 02:47:14;;;;;;;;;;;24.10;72.40;;;;;;5073831;28;19913;-55
2022/07/25 02:49:39;;;;;;;;;;;24.10;73.20;;;;;;5074232;28;19970;-53
2022/07/25 02:52:05;;;;;;;;;;;24.00;73.00;;;;;;5074152;28;19916;-54
2022/07/25 02:54:31;;;;;;;;;;;23.90;73.60;;;;;;5074185;28;19912;-57
2022/07/25 02:56:56;;;;;;;;;;;23.80;73.70;;;;;;5074530;28;19915;-57
2022/07/25 02:59:22;;;;;;;;;;;23.70;73.50;;;;;;5074136;28;20000;-53
2022/07/25 03:01:47;;;;;;;;;;;23.60;73.70;;;;;;5073974;28;19919;-57
2022/07/25 03:04:13;;;;;;;;;;;23.50;73.80;;;;;;5073962;28;19934;-53
2022/07/25 03:06:38;;;;;;;;;;;23.40;73.90;;;;;;5055950;28;19908;-56
2022/07/25 03:09:04;;;;;;;;;;;23.40;73.40;;;;;;5073970;28;19909;-55
2022/07/25 03:11:29;;;;;;;;;;;23.30;73.60;;;;;;5039007;28;20329;-56
2022/07/25 03:13:54;;;;;;;;;;;23.20;73.20;;;;;;5074183;28;19912;-53
2022/07/25 03:16:20;;;;;;;;;;;23.10;73.50;;;;;;5073619;28;19916;-52
2022/07/25 03:18:45;;;;;;;;;;;23.10;73.20;;;;;;5073407;28;19939;-51
2022/07/25 03:21:11;;;;;;;;;;;23.00;73.30;;;;;;5073608;28;19947;-56
2022/07/25 03:23:37;;;;;;;;;;;23.00;73.10;;;;;;5073704;28;19908;-54
2022/07/25 03:26:03;;;;;;;;;;;22.90;73.20;;;;;;5067344;28;19912;-53
2022/07/25 03:28:28;;;;;;;;;;;22.80;72.90;;;;;;5073578;28;19916;-53
2022/07/25 03:30:54;;;;;;;;;;;22.70;72.50;;;;;;5072849;28;19912;-55
2022/07/25 03:33:19;;;;;;;;;;;22.70;72.50;;;;;;5073095;28;19919;-55
2022/07/25 03:35:45;;;;;;;;;;;22.60;72.20;;;;;;5067923;28;20007;-57
2022/07/25 03:38:10;;;;;;;;;;;22.40;72.20;;;;;;5072350;28;19970;-56
2022/07/25 03:40:36;;;;;;;;;;;22.40;72.50;;;;;;5073771;28;20369;-58
2022/07/25 03:43:02;;;;;;;;;;;22.30;72.70;;;;;;5073659;28;19908;-54
2022/07/25 03:45:27;;;;;;;;;;;22.30;72.50;;;;;;5073100;28;19954;-57
2022/07/25 03:47:53;;;;;;;;;;;22.30;72.50;;;;;;5072895;28;19944;-53
2022/07/25 03:50:18;;;;;;;;;;;22.20;72.30;;;;;;5072666;28;19920;-51
2022/07/25 03:52:44;;;;;;;;;;;22.20;72.40;;;;;;5072791;28;19947;-56
2022/07/25 03:55:10;;;;;;;;;;;22.20;72.40;;;;;;5073042;28;19914;-54
2022/07/25 03:57:35;;;;;;;;;;;22.10;72.10;;;;;;5072793;28;20346;-56
2022/07/25 04:00:01;;;;;;;;;;;22.00;71.80;;;;;;5072138;28;19953;-53
2022/07/25 04:02:27;;;;;;;;;;;22.00;71.60;;;;;;5072626;28;19913;-54
2022/07/25 04:04:52;;;;;;;;;;;22.00;71.40;;;;;;5072623;28;19940;-55
2022/07/25 04:07:18;;;;;;;;;;;22.00;71.20;;;;;;5072389;28;19916;-53
2022/07/25 04:09:43;;;;;;;;;;;21.90;71.10;;;;;;5072811;28;19908;-56
2022/07/25 04:12:09;;;;;;;;;;;21.80;71.10;;;;;;5072401;28;20281;-56
2022/07/25 04:14:34;;;;;;;;;;;21.80;71.10;;;;;;5072182;28;20431;-55
2022/07/25 04:17:00;;;;;;;;;;;21.80;71.40;;;;;;5071766;28;19917;-54
2022/07/25 04:19:25;;;;;;;;;;;21.70;71.20;;;;;;5054448;28;19923;-53
2022/07/25 04:21:51;;;;;;;;;;;21.70;71.40;;;;;;5072204;28;19955;-57
2022/07/25 04:24:16;;;;;;;;;;;21.70;71.60;;;;;;5072392;28;19908;-57
2022/07/25 04:26:42;;;;;;;;;;;21.70;71.70;;;;;;5072022;28;19908;-55
2022/07/25 04:29:07;;;;;;;;;;;21.70;71.80;;;;;;5071833;28;20328;-55
2022/07/25 04:31:33;;;;;;;;;;;21.70;71.70;;;;;;5071953;28;19913;-56
2022/07/25 04:33:58;;;;;;;;;;;21.70;71.70;;;;;;5072007;28;20395;-54
2022/07/25 04:36:25;;;;;;;;;;;21.70;71.80;;;;;;5072726;28;19908;-56
2022/07/25 04:38:51;;;;;;;;;;;21.70;72.20;;;;;;5071313;28;19963;-56
2022/07/25 04:41:16;;;;;;;;;;;21.70;72.40;;;;;;5071732;28;19955;-56
2022/07/25 04:43:42;;;;;;;;;;;21.70;72.50;;;;;;5072013;28;19955;-56
2022/07/25 04:46:08;;;;;;;;;;;21.70;73.20;;;;;;5070872;28;19947;-53
2022/07/25 04:48:33;;;;;;;;;;;21.60;74.00;;;;;;5071051;28;19916;-54
2022/07/25 04:50:59;;;;;;;;;;;21.60;74.80;;;;;;5071196;28;20400;-56
2022/07/25 04:53:26;;;;;;;;;;;21.50;75.50;;;;;;5071452;28;20361;-57
2022/07/25 04:55:52;;;;;;;;;;;21.50;76.70;;;;;;5071561;28;19912;-56
2022/07/25 04:58:18;;;;;;;;;;;21.40;76.60;;;;;;5071662;28;20007;-54
2022/07/25 05:00:43;;;;;;;;;;;21.40;77.40;;;;;;5071501;28;19916;-56
2022/07/25 05:03:09;;;;;;;;;;;21.40;77.40;;;;;;5071474;28;20274;-54
2022/07/25 05:05:34;;;;;;;;;;;21.40;78.00;;;;;;5071230;28;19915;-56
2022/07/25 05:08:00;;;;;;;;;;;21.40;79.30;;;;;;5071312;28;19959;-57
2022/07/25 05:10:27;;;;;;;;;;;21.30;79.80;;;;;;5053161;28;20684;-55
2022/07/25 05:12:52;;;;;;;;;;;21.40;80.00;;;;;;5070688;28;20382;-57
2022/07/25 05:15:18;;;;;;;;;;;21.30;81.90;;;;;;5070698;28;20633;-57
2022/07/25 05:17:44;;;;;;;;;;;21.10;81.90;;;;;;5070938;28;19974;-58
2022/07/25 05:20:10;;;;;;;;;;;21.10;81.30;;;;;;5052652;28;20058;-56
2022/07/25 05:22:35;;;;;;;;;;;21.10;81.80;;;;;;5070630;28;20369;-57
2022/07/25 05:25:03;;;;;;;;;;;21.20;81.90;;;;;;5070888;28;20397;-57
2022/07/25 05:27:29;;;;;;;;;;;21.20;81.80;;;;;;5070632;28;19912;-53
2022/07/25 05:29:54;;;;;;;;;;;21.20;82.20;;;;;;5070121;28;19954;-56
2022/07/25 05:32:20;;;;;;;;;;;21.20;82.30;;;;;;5070304;28;20031;-56
2022/07/25 05:34:46;;;;;;;;;;;21.20;81.90;;;;;;5070841;28;20328;-57
2022/07/25 05:37:11;;;;;;;;;;;21.30;82.10;;;;;;5063496;28;19959;-56
2022/07/25 05:39:39;;;;;;;;;;;21.30;82.00;;;;;;5070868;28;19966;-56
2022/07/25 05:42:05;;;;;;;;;;;21.20;81.90;;;;;;5052480;28;19912;-57
2022/07/25 05:44:31;;;;;;;;;;;21.30;82.00;;;;;;5070516;28;19936;-57
2022/07/25 05:46:56;;;;;;;;;;;21.30;82.30;;;;;;5070743;28;19959;-56
2022/07/25 05:49:22;;;;;;;;;;;21.30;82.40;;;;;;5070122;28;20367;-53
2022/07/25 05:51:47;;;;;;;;;;;21.30;82.10;;;;;;5070575;28;19909;-57
2022/07/25 05:54:13;;;;;;;;;;;21.30;82.20;;;;;;5070512;28;20328;-53
2022/07/25 05:56:38;;;;;;;;;;;21.40;82.00;;;;;;5070080;28;19908;-55
2022/07/25 05:59:04;;;;;;;;;;;21.40;82.00;;;;;;5069514;28;19917;-57
2022/07/25 06:01:29;;;;;;;;;;;21.30;82.20;;;;;;5070688;28;19919;-55
2022/07/25 06:03:55;;;;;;;;;;;21.30;82.50;;;;;;5070388;28;20292;-57
2022/07/25 06:06:20;;;;;;;;;;;21.20;82.90;;;;;;5063607;28;19960;-54
2022/07/25 06:08:46;;;;;;;;;;;21.20;83.10;;;;;;5070552;28;19999;-57
2022/07/25 06:11:12;;;;;;;;;;;21.20;82.70;;;;;;5069869;28;20296;-57
2022/07/25 06:13:37;;;;;;;;;;;21.30;82.60;;;;;;5065131;28;19913;-55
2022/07/25 06:16:03;;;;;;;;;;;21.30;82.60;;;;;;5069280;28;19982;-56
2022/07/25 06:18:28;;;;;;;;;;;21.30;83.00;;;;;;5070263;28;20398;-57
2022/07/25 06:20:54;;;;;;;;;;;21.20;83.10;;;;;;5070124;28;20453;-58
2022/07/25 06:23:20;;;;;;;;;;;21.30;83.30;;;;;;5069681;28;19908;-51
2022/07/25 06:25:46;;;;;;;;;;;21.30;83.30;;;;;;5076972;28;19908;-53
2022/07/25 06:28:13;;;;;;;;;;;21.30;83.30;;;;;;5077851;28;20031;-54
2022/07/25 06:30:42;;;;;;;;;;;21.30;83.00;;;;;;5079004;28;19909;-54
2022/07/25 06:33:08;;;;;;;;;;;21.30;83.30;;;;;;5069918;28;19951;-59
2022/07/25 06:35:33;;;;;;;;;;;21.40;83.50;;;;;;5068317;28;20017;-59
2022/07/25 06:37:59;;;;;;;;;;;21.40;83.00;;;;;;5069849;28;20419;-61
2022/07/25 06:40:24;;;;;;;;;;;21.40;83.40;;;;;;5069425;28;19925;-60
2022/07/25 06:42:50;;;;;;;;;;;21.50;83.50;;;;;;5069827;28;19958;-60
2022/07/25 06:45:15;;;;;;;;;;;21.60;83.20;;;;;;5070515;28;19962;-61
2022/07/25 06:47:42;;;;;;;;;;;21.60;83.60;;;;;;5069466;28;19948;-61
2022/07/25 06:50:08;;;;;;;;;;;21.60;83.40;;;;;;5070217;28;19921;-61
2022/07/25 06:52:34;;;;;;;;;;;21.60;83.90;;;;;;5063119;28;20011;-60
2022/07/25 06:54:59;;;;;;;;;;;21.60;84.30;;;;;;5069356;28;19995;-61
2022/07/25 06:57:25;;;;;;;;;;;21.60;84.20;;;;;;5074002;28;19916;-61
2022/07/25 06:59:50;;;;;;;;;;;21.60;84.40;;;;;;5071853;28;19917;-61
2022/07/25 07:02:16;;;;;;;;;;;21.60;84.90;;;;;;5052614;28;19912;-59
2022/07/25 07:04:42;;;;;;;;;;;21.60;85.10;;;;;;5068334;28;20292;-61
2022/07/25 07:07:07;;;;;;;;;;;21.60;85.00;;;;;;5072661;28;19912;-60
2022/07/25 07:09:32;;;;;;;;;;;21.70;84.50;;;;;;5068284;28;19955;-58
2022/07/25 07:11:58;;;;;;;;;;;21.70;84.80;;;;;;5071689;28;19922;-63
2022/07/25 07:14:24;;;;;;;;;;;21.80;84.50;;;;;;5072399;28;19916;-61
2022/07/25 07:16:49;;;;;;;;;;;21.80;84.80;;;;;;5070581;28;20242;-60
2022/07/25 07:19:15;;;;;;;;;;;21.80;84.40;;;;;;5066049;28;19921;-62
2022/07/25 07:21:41;;;;;;;;;;;21.80;84.70;;;;;;5072292;28;19978;-61
2022/07/25 07:24:07;;;;;;;;;;;21.90;84.70;;;;;;5071005;28;20003;-60
2022/07/25 07:26:32;;;;;;;;;;;21.90;85.10;;;;;;5070913;28;19954;-62
2022/07/25 07:28:58;;;;;;;;;;;22.00;84.60;;;;;;5071248;28;20039;-61
2022/07/25 07:31:23;;;;;;;;;;;22.00;84.80;;;;;;5071839;28;19962;-62
2022/07/25 07:33:49;;;;;;;;;;;22.10;84.40;;;;;;5071079;28;19966;-61
2022/07/25 07:36:15;;;;;;;;;;;22.10;84.20;;;;;;5070802;28;19912;-62
2022/07/25 07:38:43;;;;;;;;;;;22.20;84.40;;;;;;5069522;28;19920;-62
2022/07/25 07:41:08;;;;;;;;;;;22.30;84.60;;;;;;5048251;28;19916;-61
2022/07/25 07:43:34;;;;;;;;;;;22.20;84.50;;;;;;5070407;28;20242;-61
2022/07/25 07:46:00;;;;;;;;;;;22.20;84.40;;;;;;5070850;28;20008;-61
2022/07/25 07:48:29;;;;;;;;;;;22.30;84.30;;;;;;5070314;28;20293;-60
2022/07/25 07:50:54;;;;;;;;;;;22.30;84.30;;;;;;5070112;28;19977;-61
2022/07/25 07:53:20;;;;;;;;;;;22.40;84.30;;;;;;5069563;28;20138;-60
2022/07/25 07:55:53;;;;;;;;;;;22.40;84.30;;;;;;5070262;28;20007;-60
2022/07/25 07:58:19;;;;;;;;;;;22.50;84.00;;;;;;5070692;28;20309;-59
2022/07/25 08:00:48;;;;;;;;;;;22.50;84.00;;;;;;5069787;28;19929;-60
2022/07/25 08:03:16;;;;;;;;;;;22.50;84.00;;;;;;5070528;28;19937;-60
2022/07/25 08:05:43;;;;;;;;;;;22.50;84.20;;;;;;5069646;28;19916;-61
2022/07/25 08:08:10;;;;;;;;;;;22.50;84.20;;;;;;5069144;28;19912;-61
2022/07/25 08:10:37;;;;;;;;;;;22.60;84.50;;;;;;5031809;28;19920;-61
2022/07/25 08:13:12;;;;;;;;;;;22.60;84.40;;;;;;5070567;28;20003;-60
2022/07/25 08:15:37;;;;;;;;;;;22.70;84.60;;;;;;5070236;28;19923;-61
2022/07/25 08:18:03;;;;;;;;;;;22.80;84.70;;;;;;5069911;28;19913;-59
2022/07/25 08:20:29;;;;;;;;;;;22.90;84.50;;;;;;5069299;28;20705;-62
2022/07/25 08:22:55;;;;;;;;;;;22.90;84.20;;;;;;5069998;28;19921;-60
2022/07/25 08:25:20;;;;;;;;;;;22.90;83.70;;;;;;5048382;28;19956;-62
2022/07/25 08:27:46;;;;;;;;;;;22.90;84.10;;;;;;5045495;28;19993;-61
2022/07/25 08:30:13;;;;;;;;;;;22.90;84.10;;;;;;5068299;28;19920;-61
2022/07/25 08:32:52;;;;;;;;;;;22.90;84.10;;;;;;5069974;28;19913;-61
2022/07/25 08:35:18;;;;;;;;;;;22.90;84.10;;;;;;5069204;28;19913;-62
2022/07/25 08:37:43;;;;;;;;;;;23.00;84.40;;;;;;5069142;28;19922;-61
2022/07/25 08:40:10;;;;;;;;;;;23.10;84.00;;;;;;5069370;28;19944;-60
2022/07/25 08:42:36;;;;;;;;;;;23.20;83.70;;;;;;5069198;28;19966;-60
2022/07/25 08:45:03;;;;;;;;;;;23.20;83.80;;;;;;5069242;28;19916;-63
2022/07/25 08:47:29;;;;;;;;;;;23.20;83.80;;;;;;5065163;28;19913;-62
2022/07/25 08:49:54;;;;;;;;;;;23.20;83.70;;;;;;5068477;28;20413;-62
2022/07/25 08:52:21;;;;;;;;;;;23.30;83.80;;;;;;5071052;28;19959;-61
2022/07/25 08:54:47;;;;;;;;;;;23.40;83.70;;;;;;5068609;28;20049;-61
2022/07/25 08:57:13;;;;;;;;;;;23.50;83.40;;;;;;5069807;28;20400;-61
2022/07/25 08:59:39;;;;;;;;;;;23.60;82.70;;;;;;5069432;28;19963;-60
2022/07/25 09:02:07;;;;;;;;;;;23.60;83.00;;;;;;5069758;28;19913;-61
2022/07/25 09:04:33;;;;;;;;;;;23.80;82.40;;;;;;5069456;28;19912;-61
2022/07/25 09:07:00;;;;;;;;;;;23.80;82.50;;;;;;5068554;28;19912;-61
2022/07/25 09:09:30;;;;;;;;;;;23.80;82.60;;;;;;5069494;28;19916;-62
2022/07/25 09:11:55;;;;;;;;;;;24.00;82.40;;;;;;5069218;28;19912;-61
2022/07/25 09:14:21;;;;;;;;;;;24.00;82.00;;;;;;5069261;28;20026;-62
2022/07/25 09:16:46;;;;;;;;;;;24.10;82.20;;;;;;5071718;28;20289;-60
2022/07/25 09:19:16;;;;;;;;;;;24.10;82.50;;;;;;5068549;28;19923;-60
2022/07/25 09:21:44;;;;;;;;;;;24.20;82.00;;;;;;5069704;28;19912;-62
2022/07/25 09:24:16;;;;;;;;;;;24.30;82.50;;;;;;5075745;28;20377;-62
2022/07/25 09:26:46;;;;;;;;;;;24.40;82.50;;;;;;5070803;28;20479;-61
2022/07/25 09:29:19;;;;;;;;;;;24.50;82.20;;;;;;5073752;28;19947;-61
2022/07/25 09:31:44;;;;;;;;;;;24.60;81.60;;;;;;5054414;28;19994;-63
2022/07/25 09:34:11;;;;;;;;;;;24.60;81.40;;;;;;5073954;28;20035;-62
2022/07/25 09:36:42;;;;;;;;;;;24.60;81.00;;;;;;5068825;28;19916;-64
2022/07/25 09:39:07;;;;;;;;;;;24.60;80.60;;;;;;5068651;28;19978;-62
2022/07/25 09:41:33;;;;;;;;;;;24.60;80.50;;;;;;5068606;28;19913;-62
2022/07/25 09:43:59;;;;;;;;;;;24.70;80.90;;;;;;5068043;28;19965;-61
2022/07/25 09:46:29;;;;;;;;;;;24.80;80.90;;;;;;5071934;28;19912;-62
2022/07/25 09:48:56;;;;;;;;;;;24.90;80.10;;;;;;5067741;28;20377;-60
2022/07/25 09:51:23;;;;;;;;;;;24.90;79.90;;;;;;5066807;28;19928;-61
2022/07/25 09:53:48;;;;;;;;;;;24.80;79.30;;;;;;5068265;28;19947;-62
2022/07/25 09:56:14;;;;;;;;;;;25.00;80.20;;;;;;5069195;28;19955;-62
2022/07/25 09:58:39;;;;;;;;;;;25.10;80.00;;;;;;5068238;28;19920;-64
2022/07/25 10:01:06;;;;;;;;;;;25.20;79.10;;;;;;5068055;28;19927;-62
2022/07/25 10:03:37;;;;;;;;;;;25.20;77.70;;;;;;5068170;28;19923;-61
2022/07/25 10:06:08;;;;;;;;;;;25.10;78.10;;;;;;5067700;28;19916;-62
2022/07/25 10:08:38;;;;;;;;;;;25.10;78.50;;;;;;5068386;28;20495;-61
2022/07/25 10:11:05;;;;;;;;;;;25.20;78.00;;;;;;5068936;28;20392;-63
2022/07/25 10:13:33;;;;;;;;;;;25.30;78.80;;;;;;5068126;28;19939;-61
2022/07/25 10:15:59;;;;;;;;;;;25.40;78.90;;;;;;5066757;28;19912;-62
2022/07/25 10:18:26;;;;;;;;;;;25.50;78.60;;;;;;5072165;28;19995;-62
2022/07/25 10:20:54;;;;;;;;;;;25.60;78.70;;;;;;5068366;28;19932;-62
2022/07/25 10:23:22;;;;;;;;;;;25.60;77.80;;;;;;5068136;28;19916;-61
2022/07/25 10:26:06;;;;;;;;;;;25.60;76.40;;;;;;5068464;28;19912;-63
2022/07/25 10:28:42;;;;;;;;;;;25.50;77.10;;;;;;5070894;28;19920;-64
2022/07/25 10:31:20;;;;;;;;;;;25.50;77.60;;;;;;5067749;28;19948;-61
2022/07/25 10:33:56;;;;;;;;;;;25.50;77.40;;;;;;5068034;28;19921;-62
2022/07/25 10:36:22;;;;;;;;;;;25.50;77.50;;;;;;5068570;28;19916;-63
2022/07/25 10:38:50;;;;;;;;;;;25.50;77.40;;;;;;5067940;28;19970;-64
2022/07/25 10:41:15;;;;;;;;;;;25.60;76.70;;;;;;5068321;28;20026;-61
2022/07/25 10:43:42;;;;;;;;;;;25.50;77.10;;;;;;5068573;28;20448;-62
2022/07/25 10:46:12;;;;;;;;;;;25.50;76.90;;;;;;5069293;28;20409;-62
2022/07/25 10:48:38;;;;;;;;;;;25.60;77.30;;;;;;5071710;28;19952;-58
2022/07/25 10:51:11;;;;;;;;;;;25.50;76.50;;;;;;5071746;28;19959;-58
2022/07/25 10:53:47;;;;;;;;;;;25.30;76.20;;;;;;5071428;28;19913;-58
2022/07/25 10:56:14;;;;;;;;;;;25.20;76.70;;;;;;5070414;28;19920;-59
2022/07/25 10:58:47;;;;;;;;;;;25.10;77.00;;;;;;5071721;28;19917;-60
2022/07/25 11:01:13;;;;;;;;;;;25.00;76.90;;;;;;5070438;28;19932;-59
2022/07/25 11:03:40;;;;;;;;;;;24.90;77.20;;;;;;5071725;28;19995;-59
2022/07/25 11:06:06;;;;;;;;;;;24.80;77.40;;;;;;5071811;28;20381;-60
2022/07/25 11:08:32;;;;;;;;;;;24.90;77.70;;;;;;5072067;28;19967;-61
2022/07/25 11:10:58;;;;;;;;;;;24.90;78.00;;;;;;5073816;28;19935;-59
2022/07/25 11:13:23;;;;;;;;;;;25.00;77.70;;;;;;5071634;28;20300;-60
2022/07/25 11:15:49;;;;;;;;;;;25.00;77.90;;;;;;5068672;28;20842;-60
2022/07/25 11:18:14;;;;;;;;;;;25.00;77.70;;;;;;5071404;28;19916;-60
2022/07/25 11:20:40;;;;;;;;;;;25.10;78.00;;;;;;5071090;28;19925;-60
2022/07/25 11:23:05;;;;;;;;;;;25.20;77.20;;;;;;5071907;28;19987;-60
2022/07/25 11:25:31;;;;;;;;;;;25.10;77.60;;;;;;5070725;28;20290;-60
2022/07/25 11:27:58;;;;;;;;;;;25.00;77.90;;;;;;5071470;28;20697;-60
2022/07/25 11:30:24;;;;;;;;;;;24.90;78.40;;;;;;5063825;28;20213;-61
2022/07/25 11:32:54;;;;;;;;;;;25.00;78.50;;;;;;5070716;28;19932;-61
2022/07/25 11:35:22;;;;;;;;;;;25.10;78.60;;;;;;5071456;28;19912;-61
2022/07/25 11:37:49;;;;;;;;;;;25.10;78.30;;;;;;5070868;28;19939;-60
2022/07/25 11:40:15;;;;;;;;;;;25.10;78.80;;;;;;5070856;28;19916;-59
2022/07/25 11:42:48;;;;;;;;;;;25.30;78.70;;;;;;5071607;28;20015;-61
2022/07/25 11:45:20;;;;;;;;;;;25.30;78.60;;;;;;5069424;28;19913;-59
2022/07/25 11:48:06;;;;;;;;;;;25.30;78.00;;;;;;5070956;28;20027;-60
2022/07/25 11:50:32;;;;;;;;;;;25.40;78.50;;;;;;5064833;28;19925;-61
2022/07/25 11:53:02;;;;;;;;;;;25.50;77.10;;;;;;5070796;28;19920;-60
2022/07/25 11:55:29;;;;;;;;;;;25.50;77.90;;;;;;5070900;28;19935;-59
2022/07/25 11:57:58;;;;;;;;;;;25.60;77.10;;;;;;5070679;28;19917;-59
2022/07/25 12:00:23;;;;;;;;;;;25.70;77.20;;;;;;5068438;28;19930;-59
2022/07/25 12:02:49;;;;;;;;;;;25.80;77.60;;;;;;5070218;28;20011;-59
2022/07/25 12:05:15;;;;;;;;;;;25.90;75.90;;;;;;5070490;28;19931;-59
2022/07/25 12:07:46;;;;;;;;;;;25.90;76.30;;;;;;5070584;28;19994;-61
2022/07/25 12:10:14;;;;;;;;;;;26.00;76.00;;;;;;5069197;28;19924;-58
2022/07/25 12:12:50;;;;;;;;;;;26.00;75.50;;;;;;5070533;28;19974;-61
2022/07/25 12:15:17;;;;;;;;;;;25.90;74.30;;;;;;5069494;28;19919;-58
2022/07/25 12:17:43;;;;;;;;;;;25.70;74.40;;;;;;5044319;28;19944;-59
2022/07/25 12:20:18;;;;;;;;;;;25.60;75.10;;;;;;5070203;28;20452;-59
2022/07/25 12:22:45;;;;;;;;;;;25.70;74.90;;;;;;5070232;28;20000;-59
2022/07/25 12:25:10;;;;;;;;;;;25.70;75.40;;;;;;5070967;28;19959;-61
2022/07/25 12:27:36;;;;;;;;;;;25.80;74.80;;;;;;5069350;28;19943;-60
2022/07/25 12:30:02;;;;;;;;;;;25.90;75.10;;;;;;5070307;28;19916;-60
2022/07/25 12:32:28;;;;;;;;;;;26.00;74.90;;;;;;5070783;28;19917;-60
2022/07/25 12:34:53;;;;;;;;;;;26.20;74.60;;;;;;5070679;28;19913;-60
2022/07/25 12:37:20;;;;;;;;;;;26.20;73.90;;;;;;5070329;28;19916;-59
2022/07/25 12:39:46;;;;;;;;;;;26.20;72.60;;;;;;5070392;28;19927;-59
2022/07/25 12:42:11;;;;;;;;;;;26.30;72.20;;;;;;5069911;28;20019;-60
2022/07/25 12:44:37;;;;;;;;;;;26.30;71.60;;;;;;5070685;28;20460;-59
2022/07/25 12:47:02;;;;;;;;;;;26.30;70.90;;;;;;5066653;28;19992;-60
2022/07/25 12:49:28;;;;;;;;;;;26.40;70.60;;;;;;5069588;28;20401;-60
2022/07/25 12:51:54;;;;;;;;;;;26.40;70.40;;;;;;5069242;28;20274;-60
2022/07/25 12:54:19;;;;;;;;;;;26.40;70.50;;;;;;5069775;28;19944;-59
2022/07/25 12:56:45;;;;;;;;;;;26.50;69.90;;;;;;5069550;28;19919;-60
2022/07/25 12:59:10;;;;;;;;;;;26.50;70.20;;;;;;5069772;28;19989;-59
2022/07/25 13:01:36;;;;;;;;;;;26.60;69.70;;;;;;5069333;28;19976;-60
2022/07/25 13:04:01;;;;;;;;;;;26.60;70.00;;;;;;5069927;28;19917;-58
2022/07/25 13:06:28;;;;;;;;;;;26.60;68.10;;;;;;5069833;28;19912;-59
2022/07/25 13:08:53;;;;;;;;;;;26.60;69.20;;;;;;5069089;28;19912;-59
2022/07/25 13:11:19;;;;;;;;;;;26.80;68.90;;;;;;5069872;28;19919;-61
2022/07/25 13:13:44;;;;;;;;;;;26.70;68.40;;;;;;5068984;28;19913;-60
2022/07/25 13:16:10;;;;;;;;;;;26.70;68.30;;;;;;5072182;28;19934;-60
2022/07/25 13:18:35;;;;;;;;;;;26.70;68.10;;;;;;5069567;28;19912;-60
2022/07/25 13:21:02;;;;;;;;;;;26.80;68.30;;;;;;5068879;28;19949;-60
2022/07/25 13:23:28;;;;;;;;;;;26.70;66.90;;;;;;5069011;28;19916;-60
2022/07/25 13:25:53;;;;;;;;;;;26.60;67.30;;;;;;5069085;28;20365;-60
2022/07/25 13:28:19;;;;;;;;;;;26.60;67.70;;;;;;5069562;28;19916;-59
2022/07/25 13:30:44;;;;;;;;;;;26.50;67.50;;;;;;5066859;28;20019;-60
2022/07/25 13:33:10;;;;;;;;;;;26.60;67.40;;;;;;5068403;28;19916;-60
2022/07/25 13:35:37;;;;;;;;;;;26.70;67.70;;;;;;5041750;28;19917;-60
2022/07/25 13:38:02;;;;;;;;;;;26.70;67.40;;;;;;5069424;28;19952;-60
2022/07/25 13:40:28;;;;;;;;;;;26.70;67.30;;;;;;5045217;28;20424;-60
2022/07/25 13:42:53;;;;;;;;;;;26.70;66.90;;;;;;5068875;28;20015;-59
2022/07/25 13:45:19;;;;;;;;;;;26.70;67.60;;;;;;5069028;28;19917;-61
2022/07/25 13:47:44;;;;;;;;;;;26.70;65.30;;;;;;5068925;28;20446;-60
2022/07/25 13:50:10;;;;;;;;;;;26.50;65.20;;;;;;5038630;28;19975;-60
2022/07/25 13:52:36;;;;;;;;;;;26.40;65.70;;;;;;5048543;28;20389;-60
2022/07/25 13:55:02;;;;;;;;;;;26.40;66.90;;;;;;5048837;28;20007;-60
2022/07/25 13:57:27;;;;;;;;;;;26.40;64.10;;;;;;5048712;28;20338;-61
2022/07/25 13:59:53;;;;;;;;;;;26.40;64.30;;;;;;5043350;28;20448;-59
2022/07/25 14:02:19;;;;;;;;;;;26.30;63.90;;;;;;5048985;28;19917;-60
2022/07/25 14:04:45;;;;;;;;;;;26.20;64.00;;;;;;5048588;28;19917;-62
2022/07/25 14:07:10;;;;;;;;;;;26.00;63.90;;;;;;5048486;28;20004;-62
2022/07/25 14:09:36;;;;;;;;;;;26.00;64.80;;;;;;5048403;28;20003;-62
2022/07/25 14:12:02;;;;;;;;;;;26.10;62.70;;;;;;5038619;28;19917;-59